createdAt,value
2023-03-26T00:05:18.633Z,0
2023-03-26T00:15:57.724Z,0
2023-03-26T00:26:36.260Z,0
2023-03-26T00:31:55.997Z,0
2023-03-26T00:42:33.779Z,0
2023-03-26T00:47:53.499Z,0
2023-03-26T00:58:31.721Z,0
2023-03-26T01:09:09.581Z,0
2023-03-26T01:14:28.982Z,0
2023-03-26T01:25:08.280Z,0
2023-03-26T01:30:27.069Z,0
2023-03-26T01:41:04.978Z,0
2023-03-26T01:51:43.455Z,0
2023-03-26T02:02:22.335Z,0
2023-03-26T02:07:41.472Z,0
2023-03-26T02:18:20.058Z,0
2023-03-26T02:23:39.649Z,0
2023-03-26T02:34:18.630Z,0
2023-03-26T02:44:57.045Z,0
2023-03-26T02:50:16.293Z,0
2023-03-26T03:00:55.570Z,0
2023-03-26T03:06:14.809Z,0
2023-03-26T03:16:53.976Z,0
2023-03-26T03:32:51.728Z,0
2023-03-26T03:43:29.219Z,0
2023-03-26T03:48:48.201Z,0
2023-03-26T03:59:26.741Z,0
2023-03-26T04:04:46.412Z,0
2023-03-26T04:15:25.048Z,0
2023-03-26T04:26:03.088Z,0
2023-03-26T04:31:22.852Z,0
2023-03-26T04:42:01.538Z,0
2023-03-26T04:47:20.551Z,0
2023-03-26T04:57:59.338Z,0
2023-03-26T05:13:57.359Z,0.0248
2023-03-26T05:24:36.641Z,0.0328
2023-03-26T05:29:56.083Z,0.0355
2023-03-26T05:40:33.930Z,0.0452
2023-03-26T05:56:31.649Z,0.0745
2023-03-26T06:07:10.125Z,0.0793
2023-03-26T06:12:29.044Z,0.0845
2023-03-26T06:23:07.493Z,0.0874
2023-03-26T06:28:26.974Z,0.1024
2023-03-26T06:39:07.396Z,0.0992
2023-03-26T06:49:45.381Z,0.1281
2023-03-26T06:55:03.456Z,0.1061
2023-03-26T07:05:41.345Z,0.0916
2023-03-26T07:11:00.779Z,0.1049
2023-03-26T07:21:38.966Z,0.1043
2023-03-26T07:32:18.979Z,0.1141
2023-03-26T07:37:36.675Z,0.1178
2023-03-26T07:48:14.789Z,0.0985
2023-03-26T07:53:34.143Z,0.1059
2023-03-26T08:04:23.069Z,0.1049
2023-03-26T08:14:51.895Z,0.1062
2023-03-26T08:20:10.930Z,0.1131
2023-03-26T08:30:49.120Z,0.2592
2023-03-26T08:41:27.825Z,0.1602
2023-03-26T08:57:24.985Z,0.1794
2023-03-26T09:08:03.064Z,0.1734
2023-03-26T09:13:22.231Z,0.1677
2023-03-26T09:24:00.738Z,0.3584
2023-03-26T09:39:58.740Z,0.235
2023-03-26T09:50:37.423Z,0.2616
2023-03-26T09:55:56.788Z,0.2748
2023-03-26T10:06:34.967Z,0.2036
2023-03-26T10:22:32.750Z,0.2275
2023-03-26T10:33:10.900Z,0.1267
2023-03-26T10:38:30.337Z,0.1438
2023-03-26T10:49:08.742Z,0.1201
2023-03-26T10:54:28.452Z,0.1065
2023-03-26T11:05:07.540Z,0.1385
2023-03-26T11:15:45.959Z,0.4931
2023-03-26T11:21:18.264Z,0.5571
2023-03-26T11:31:44.319Z,0.8058
2023-03-26T11:37:03.472Z,1.6187
2023-03-26T11:47:42.204Z,2.1801
2023-03-26T12:03:40.186Z,0.5379
2023-03-26T12:14:18.529Z,0.3249
2023-03-26T12:19:37.747Z,0.2865
2023-03-26T12:30:15.957Z,0.1386
2023-03-26T12:35:35.621Z,0.2917
2023-03-26T12:47:26.529Z,1.2462
2023-03-26T12:57:11.525Z,2.1706
2023-03-26T13:02:11.068Z,2.1541
2023-03-26T13:12:49.260Z,2.2687
2023-03-26T13:18:08.540Z,1.9924
2023-03-26T13:28:46.724Z,0.6226
2023-03-26T13:39:25.110Z,1.8289
2023-03-26T13:44:44.105Z,1.8031
2023-03-26T13:55:22.134Z,1.7009
2023-03-26T14:00:41.296Z,1.5322
2023-03-26T14:11:20.231Z,1.4464
2023-03-26T14:21:58.760Z,1.0362
2023-03-26T14:27:17.604Z,0.9973
2023-03-26T14:37:56.284Z,0.8122
2023-03-26T14:43:15.432Z,0.601
2023-03-26T14:53:53.590Z,0.5435
2023-03-26T14:59:12.881Z,0.5539
2023-03-26T15:09:51.899Z,0.2683
2023-03-26T15:15:11.077Z,0.2808
2023-03-26T15:20:30.480Z,0.2215
2023-03-26T15:26:13.908Z,0.1917
2023-03-26T15:36:51.934Z,0.1657
2023-03-26T15:47:31.044Z,0.1435
2023-03-26T15:52:49.940Z,0.1291
2023-03-26T16:03:28.538Z,0.1112
2023-03-26T16:19:26.433Z,0.094
2023-03-26T16:35:24.735Z,0.1143
2023-03-26T16:46:02.787Z,0.0754
2023-03-26T16:51:21.690Z,0.0652
2023-03-26T17:01:59.982Z,0.0549
2023-03-26T17:12:39.096Z,0.0446
2023-03-26T17:17:57.974Z,0.0379
2023-03-26T17:28:37.248Z,0.0348
2023-03-26T17:33:56.616Z,0.0311
2023-03-26T17:44:35.540Z,0.0143
2023-03-26T18:00:32.892Z,0
2023-03-26T18:11:11.490Z,0
2023-03-26T18:16:31.206Z,0
2023-03-26T18:27:12.148Z,0
2023-03-26T18:43:08.989Z,0
2023-03-26T18:53:47.526Z,0
2023-03-26T18:59:06.851Z,0
2023-03-26T19:09:46.087Z,0
2023-03-26T19:15:05.012Z,0
2023-03-26T19:25:42.994Z,0
2023-03-26T19:36:21.937Z,0
2023-03-26T19:41:40.801Z,0
2023-03-26T19:52:19.568Z,0
2023-03-26T20:08:17.740Z,0
2023-03-26T20:24:15.758Z,0
2023-03-26T20:34:54.078Z,0
2023-03-26T20:40:13.814Z,0
2023-03-26T20:50:52.627Z,0
2023-03-26T20:56:12.104Z,0
2023-03-26T21:06:50.795Z,0
2023-03-26T21:22:47.481Z,0
2023-03-26T21:33:25.794Z,0
2023-03-26T21:49:23.329Z,0
2023-03-26T22:00:01.386Z,0
2023-03-26T22:10:39.161Z,0
2023-03-26T22:15:58.847Z,0
2023-03-26T22:26:37.325Z,0
2023-03-26T22:37:15.301Z,0
2023-03-26T22:42:34.132Z,0
2023-03-26T22:53:11.827Z,0
2023-03-26T22:58:31.137Z,0
2023-03-26T23:09:09.154Z,0
2023-03-26T23:19:46.752Z,0
2023-03-26T23:25:05.547Z,0
2023-03-26T23:35:43.371Z,0
2023-03-26T23:41:02.569Z,0
2023-03-26T23:51:41.024Z,0
